Weather observations for the past three days for
Pinedale, Ralph Wenz Field Airport
Imperial (Metric)
Date Time (mdt) Wind (mph) Vis. (mi.) Weather Sky Cond. Temperature (ºF) Relative Humidity Wind Chill (°F) Heat Index (°F) Pressure Precipitation (in)
Air Dwpt 6 hour altimeter (in) sea level (mb) 1 hr 3 hr 6 hr
Max. Min.
03 15:15 W 6 10.00 Fair CLR 64.4 12.2 13% 30.01 0.0
03 14:55 W 10 G 21 10.00 Partly Cloudy SCT110 62.6 10.4 13% 30.03 0.0
03 14:35 W 12 G 22 10.00 Mostly Cloudy BKN110 64.4 12.2 13% 30.03 0.0
03 14:15 W 13 G 18 10.00 Partly Cloudy SCT110 62.6 12.2 14% 30.04 0.0
03 13:55 W 12 G 23 10.00 Fair CLR 64.4 12.2 13% 30.05 0.0
03 13:35 W 20 G 24 10.00 Partly Cloudy SCT110 64.4 14 14% 30.05 0.0
03 13:15 NW 10 G 18 10.00 Mostly Cloudy BKN110 62.6 14 15% 30.05 0.0
03 12:35 SW 9 G 18 10.00 Mostly Cloudy BKN110 62.6 15.8 16% 30.07 0.0
03 12:15 W 12 G 21 10.00 Partly Cloudy SCT100 60.8 14 16% 30.08 0.0
03 11:55 NW 12 10.00 Fair CLR 60.8 14 16% 30.09 0.0
03 11:35 NW 10 10.00 Fair CLR 59 14 17% 30.1 0.0
03 11:15 W 12 G 16 10.00 Fair CLR 59 12.2 16% 30.11 0.0
03 10:55 NW 6 10.00 Fair CLR 57.2 14 18% 30.11 0.0
03 10:35 W 6 10.00 Fair CLR 57.2 17.6 21% 30.11 0.0
03 10:15 Calm 10.00 Fair CLR 55.4 17.6 23% 30.12 0.0
03 09:55 Calm 10.00 Fair CLR 53.6 23 30% 30.13 0.0
03 09:35 Calm 10.00 Fair CLR 50 21.2 32% 30.13 0.0
03 09:15 Calm 10.00 Fair CLR 48.2 23 37% 30.14 0.0
03 08:55 Calm 10.00 Fair CLR 44.6 26.6 49% 30.13 0.0
03 08:35 Calm 10.00 Fair CLR 41 26.6 57% 30.14 0.0
03 08:15 NW 5 10.00 Fair CLR 37.4 26.6 65% 34 30.14 0.0
03 07:55 NW 6 10.00 Fair CLR 35.6 23 60% 31 30.15 0.0
03 07:35 NW 8 10.00 Fair CLR 32 23 69% 25 30.15 0.0
03 07:15 NW 7 10.00 Fair CLR 30.2 23 75% 24 30.14 0.0
03 06:35 W 7 10.00 Fair CLR 26.6 21.2 80% 20 30.14 0.0
03 06:15 NW 5 10.00 Fair CLR 26.6 21.2 80% 22 30.13 0.0
03 05:55 W 7 10.00 Fair CLR 26.6 21.2 80% 20 30.13 0.0
03 05:35 NW 6 10.00 Fair CLR 26.6 21.2 80% 21 30.13 0.0
03 05:15 NW 3 10.00 Fair CLR 28.4 21.2 74% 30.13 0.0
03 04:55 NW 6 10.00 Fair CLR 28.4 21.2 74% 23 30.13 0.0
03 04:35 NW 6 10.00 Fair CLR 28.4 21.2 74% 23 30.13 0.0
03 04:15 W 7 10.00 Fair CLR 28.4 21.2 74% 22 30.14 0.0
03 03:55 W 5 10.00 Fair CLR 30.2 21.2 69% 26 30.14 0.0
03 03:35 NW 8 10.00 Fair CLR 30.2 21.2 69% 23 30.13 0.0
03 03:15 W 6 10.00 Fair CLR 30.2 23 75% 25 30.13 0.0
03 02:55 NW 6 10.00 Fair CLR 32 23 69% 27 30.13 0.0
03 02:35 NW 7 10.00 Fair CLR 32 23 69% 26 30.14 0.0
03 02:15 W 5 10.00 Fair CLR 30.2 23 75% 26 30.14 0.0
03 01:55 W 7 10.00 Fair CLR 32 23 69% 26 30.14 0.0
03 01:35 NW 6 10.00 Fair CLR 32 23 69% 27 30.14 0.0
03 01:15 W 3 10.00 Fair CLR 32 23 69% 30.14 0.0
03 00:55 NW 5 10.00 Fair CLR 33.8 23 65% 30 30.14 0.0
03 00:35 NW 7 10.00 Fair CLR 33.8 23 65% 28 30.14 0.0
03 00:15 NW 7 10.00 Fair CLR 35.6 23 60% 31 30.14 0.0
02 23:55 W 7 10.00 Fair CLR 35.6 23 60% 31 30.15 0.0
02 23:35 NW 5 10.00 Fair CLR 37.4 23 56% 34 30.15 0.0
02 23:15 W 6 10.00 Fair CLR 37.4 23 56% 33 30.14 0.0
02 22:55 NW 5 10.00 Fair CLR 39.2 23 52% 36 30.15 0.0
02 22:35 W 7 10.00 Fair CLR 37.4 23 56% 33 30.15 0.0
02 22:15 W 7 10.00 Fair CLR 41 23 49% 37 30.15 0.0
02 21:55 NW 8 10.00 Fair CLR 42.8 23 46% 39 30.14 0.0
02 21:35 NW 9 10.00 Fair CLR 44.6 21.2 39% 40 30.13 0.0
02 21:15 NW 8 10.00 Fair CLR 44.6 23 43% 41 30.13 0.0
02 20:55 NW 6 10.00 Fair CLR 48.2 23 37% 46 30.13 0.0
02 20:35 NW 8 10.00 Fair CLR 50 21.2 32% 47 30.11 0.0
02 20:15 NW 9 10.00 Partly Cloudy SCT110 53.6 21.2 28% 30.11 0.0
02 19:55 NW 10 10.00 Mostly Cloudy BKN110 55.4 21.2 26% 30.11 0.0
02 19:35 NW 10 10.00 Mostly Cloudy BKN110 59 19.4 21% 30.1 0.0
02 19:15 NW 15 10.00 Mostly Cloudy BKN120 60.8 17.6 19% 30.1 0.0
02 18:55 W 16 G 22 10.00 Mostly Cloudy BKN120 60.8 15.8 17% 30.1 0.0
02 18:35 NW 13 10.00 Mostly Cloudy BKN120 60.8 15.8 17% 30.1 0.0
02 18:15 W 6 10.00 Partly Cloudy SCT120 62.6 14 15% 30.11 0.0
02 17:55 W 6 10.00 Partly Cloudy SCT110 60.8 14 16% 30.11 0.0
02 17:35 NW 10 10.00 Mostly Cloudy BKN110 62.6 14 15% 30.11 0.0
02 17:15 N 3 10.00 Partly Cloudy SCT110 62.6 14 15% 30.11 0.0
02 16:55 W 6 10.00 Mostly Cloudy BKN110 62.6 14 15% 30.13 0.0
02 16:35 NW 8 10.00 Overcast OVC110 62.6 14 15% 30.13 0.0
02 16:15 N 6 10.00 Partly Cloudy SCT110 62.6 14 15% 30.14 0.0
02 15:55 SE 5 10.00 Fair CLR 62.6 12.2 14% 30.15 0.0
02 15:35 NW 5 10.00 Fair CLR 60.8 12.2 15% 30.16 0.0
02 15:15 NW 7 10.00 Fair CLR 60.8 12.2 15% 30.17 0.0
02 14:55 Calm 10.00 Fair CLR 60.8 12.2 15% 30.18 0.0
02 14:35 SE 5 10.00 Fair CLR 60.8 12.2 15% 30.18 0.0
02 14:15 S 3 10.00 Fair CLR 60.8 12.2 15% 30.19 0.0
02 13:55 NW 8 10.00 Fair CLR 59 10.4 14% 30.2 0.0
02 13:35 N 6 10.00 Fair CLR 59 10.4 14% 30.21 0.0
02 13:15 SW 6 10.00 Fair CLR 59 10.4 14% 30.21 0.0
02 12:55 SW 8 10.00 Fair CLR 57.2 10.4 15% 30.23 0.0
02 12:35 W 9 10.00 Fair CLR 57.2 10.4 15% 30.24 0.0
02 12:15 N 3 10.00 Fair CLR 55.4 12.2 18% 30.24 0.0
02 11:55 NW 5 10.00 Fair CLR 55.4 12.2 18% 30.25 0.0
02 11:35 Calm 10.00 Fair CLR 55.4 12.2 18% 30.26 0.0
02 11:15 Calm 10.00 Fair CLR 55.4 15.8 21% 30.26 0.0
02 10:55 NE 3 10.00 Fair CLR 53.6 14 21% 30.26 0.0
02 10:35 Calm 10.00 Fair CLR 51.8 12.2 20% 30.26 0.0
02 10:15 SE 5 10.00 Fair CLR 51.8 14 22% 30.27 0.0
02 09:55 Calm 10.00 Fair CLR 48.2 14 25% 30.27 0.0
02 09:35 Calm 10.00 Fair CLR 46.4 21.2 37% 30.27 0.0
02 09:15 NW 3 10.00 Fair CLR 44.6 21.2 39% 30.27 0.0
02 08:55 NW 6 10.00 Fair CLR 42.8 23 46% 40 30.28 0.0
02 08:35 NW 6 10.00 Fair CLR 39.2 24.8 56% 36 30.27 0.0
02 08:15 NW 6 10.00 Fair CLR 33.8 23 65% 29 30.28 0.0
02 07:55 NW 7 10.00 Fair CLR 32 23 69% 26 30.28 0.0
02 07:35 NW 5 10.00 Fair CLR 30.2 23 75% 26 30.28 0.0
02 07:15 W 6 10.00 Fair CLR 26.6 21.2 80% 21 30.27 0.0
02 06:55 NW 3 10.00 Fair CLR 26.6 21.2 80% 30.27 0.0
02 06:35 NW 5 10.00 Fair CLR 23 19.4 86% 18 30.27 0.0
02 06:15 NW 3 10.00 Fair CLR 23 19.4 86% 30.27 0.0
02 05:55 NW 5 10.00 Fair CLR 23 19.4 86% 18 30.27 0.0
02 05:35 NW 6 10.00 Fair CLR 24.8 21.2 86% 19 30.27 0.0
02 05:15 W 7 10.00 Fair CLR 24.8 21.2 86% 18 30.27 0.0
02 04:55 NW 3 10.00 Fair CLR 24.8 19.4 80% 30.28 0.0
02 04:35 NW 3 10.00 Fair CLR 24.8 19.4 80% 30.27 0.0
02 04:15 NW 3 10.00 Fair CLR 26.6 21.2 80% 30.27 0.0
02 03:55 NW 6 10.00 Fair CLR 28.4 23 80% 23 30.27 0.0
02 03:35 W 6 10.00 Fair CLR 26.6 23 86% 21 30.27 0.0
02 03:15 W 5 10.00 Fair CLR 28.4 21.2 74% 24 30.27 0.0
02 02:55 W 3 10.00 Fair CLR 26.6 23 86% 30.27 0.0
02 02:35 NW 3 10.00 Fair CLR 28.4 23 80% 30.27 0.0
02 02:15 W 3 10.00 Fair CLR 30.2 23 75% 30.27 0.0
02 01:55 Calm 10.00 Fair CLR 30.2 23 75% 30.27 0.0
02 01:35 Calm 10.00 Fair CLR 32 23 69% 30.27 0.0
02 01:15 Calm 10.00 Fair CLR 32 21.2 64% 30.27 0.0
02 00:55 Calm 10.00 Fair CLR 33.8 21.2 60% 30.27 0.0
02 00:35 NE 3 10.00 Fair CLR 33.8 21.2 60% 30.27 0.0
02 00:15 E 5 10.00 Fair CLR 33.8 21.2 60% 30 30.26 0.0
01 23:55 E 5 10.00 Fair CLR 35.6 21.2 56% 32 30.26 0.0
01 23:35 SE 5 10.00 Fair CLR 33.8 21.2 60% 30 30.25 0.0
01 23:15 SE 8 10.00 Fair CLR 35.6 21.2 56% 30 30.25 0.0
01 22:55 E 9 10.00 Fair CLR 35.6 23 60% 29 30.24 0.0
01 22:35 SE 8 10.00 Fair CLR 35.6 21.2 56% 30 30.24 0.0
01 22:15 SE 3 10.00 Fair CLR 41 19.4 42% 30.24 0.0
01 21:55 E 3 10.00 Fair CLR 41 23 49% 30.24 0.0
01 21:35 Calm 10.00 Fair CLR 42.8 21.2 42% 30.23 0.0
01 21:15 N 3 10.00 Fair CLR 42.8 23 46% 30.21 0.0
01 20:55 Calm 10.00 Fair CLR 44.6 19.4 37% 30.2 0.0
01 20:35 Calm 10.00 Fair CLR 48.2 17.6 29% 30.19 0.0
01 20:15 SE 5 10.00 Fair CLR 51.8 15.8 24% 30.19 0.0
01 19:55 Calm 10.00 Fair CLR 53.6 12.2 19% 30.18 0.0
01 19:35 SE 5 10.00 Fair CLR 53.6 10.4 18% 30.18 0.0
01 19:15 Calm 10.00 Fair CLR 55.4 6.8 14% 30.18 0.0
01 18:55 SE 6 10.00 Fair CLR 55.4 8.6 15% 30.18 0.0
01 18:35 Calm 10.00 Fair CLR 55.4 5 13% 30.18 0.0
01 18:15 NE 6 10.00 Fair CLR 57.2 8.6 14% 30.18 0.0
01 17:55 E 8 10.00 Fair CLR 57.2 6.8 13% 30.18 0.0
01 17:35 Calm 10.00 Fair CLR 55.4 5 13% 30.18 0.0
01 17:15 NE 6 10.00 Fair CLR 57.2 6.8 13% 30.18 0.0
01 16:55 Calm 10.00 Partly Cloudy SCT110 55.4 10.4 16% 30.18 0.0
01 16:35 W 5 10.00 Partly Cloudy SCT110 55.4 10.4 16% 30.18 0.0
01 16:15 SW 7 10.00 Partly Cloudy SCT100 55.4 12.2 18% 30.18 0.0
01 15:55 W 7 10.00 Fair CLR 55.4 12.2 18% 30.19 0.0
01 15:35 NE 5 10.00 Fair CLR 53.6 10.4 18% 30.19 0.0
01 15:15 SW 7 10.00 Fair CLR 55.4 14 19% 30.21 0.0
01 14:55 NW 8 10.00 Fair CLR 53.6 14 21% 30.21 0.0
01 14:35 Calm 10.00 Fair CLR 53.6 12.2 19% 30.21 0.0
01 14:15 N 5 10.00 Fair CLR 51.8 14 22% 30.22 0.0
01 13:55 Calm 10.00 Fair CLR 51.8 14 22% 30.22 0.0
01 13:35 Calm 10.00 Fair CLR 51.8 17.6 26% 30.22 0.0
01 13:15 W 7 10.00 Fair CLR 50 17.6 28% 48 30.22 0.0
01 12:55 Calm 10.00 Fair CLR 50 19.4 30% 30.23 0.0
01 12:35 SW 3 10.00 Fair CLR 46.4 21.2 37% 30.24 0.0
01 12:15 Calm 10.00 Fair CLR 46.4 21.2 37% 30.24 0.0
01 11:55 W 3 10.00 Fair CLR 44.6 23 43% 30.24 0.0
01 11:35 Calm 10.00 Fair CLR 44.6 24.8 46% 30.25 0.0
01 11:15 Calm 10.00 Fair CLR 42.8 28.4 57% 30.25 0.0
01 10:55 W 6 10.00 Fair CLR 42.8 30.2 61% 40 30.26 0.0
01 10:35 W 7 10.00 Fair CLR 41 30.2 66% 37 30.26 0.0
01 10:15 W 3 10.00 Fair CLR 37.4 28.4 70% 30.26 0.0
01 09:55 Calm 10.00 Fair CLR 33.8 30.2 87% 30.26 0.0
01 09:35 W 3 10.00 Fair CLR 32 30.2 93% 30.26 0.0
01 09:15 W 3 10.00 Fair CLR 32 28.4 87% 30.26 0.0
01 08:55 NW 5 10.00 Fair CLR 30.2 26.6 86% 26 30.26 0.0
01 08:35 W 3 10.00 Fair CLR 28.4 24.8 86% 30.26 0.0
01 08:15 W 5 10.00 Fair CLR 26.6 23 86% 22 30.26 0.0
01 07:55 W 7 10.00 Fair CLR 24.8 21.2 86% 18 30.26 0.0
01 07:35 NW 7 10.00 Fair CLR 23 21.2 93% 16 30.25 0.0
01 07:15 W 5 10.00 Fair CLR 21.2 19.4 93% 16 30.24 0.0
01 06:55 W 5 10.00 Fair CLR 19.4 17.6 93% 14 30.24 0.0
01 06:35 NW 6 10.00 Fair CLR 17.6 15.8 93% 10 30.24 0.0
01 06:15 W 5 10.00 Fair CLR 17.6 17.6 100% 11 30.23 0.0
01 05:55 NW 3 10.00 Fair CLR 19.4 17.6 93% 30.23 0.0
01 05:35 NW 5 10.00 Fair CLR 19.4 17.6 93% 14 30.23 0.0
01 05:15 NW 6 10.00 Fair CLR 19.4 19.4 100% 12 30.24 0.0
01 04:55 NW 6 10.00 Fair CLR 19.4 17.6 93% 12 30.24 0.0
01 04:35 W 6 10.00 Fair CLR 19.4 17.6 93% 12 30.24 0.0
01 04:15 NW 5 10.00 Fair CLR 21.2 19.4 93% 16 30.23 0.0
01 03:55 NW 5 10.00 Fair CLR 19.4 19.4 100% 14 30.23 0.0
01 03:35 Calm 10.00 Fair CLR 21.2 21.2 100% 30.23 0.0
01 03:15 NW 5 10.00 Fair CLR 21.2 21.2 100% 16 30.24 0.0
01 02:55 NW 3 10.00 Fair CLR 21.2 21.2 100% 30.24 0.0
01 02:35 NW 6 10.00 Fair CLR 23 21.2 93% 17 30.24 0.0
01 02:15 NW 6 10.00 Fair CLR 23 21.2 93% 17 30.24 0.0
01 01:55 NW 3 10.00 Fair CLR 21.2 21.2 100% 30.24 0.0
01 01:35 W 5 10.00 Fair CLR 23 21.2 93% 18 30.25 0.0
01 01:15 NW 3 10.00 Fair CLR 23 21.2 93% 30.25 0.0
01 00:55 W 6 10.00 Fair CLR 24.8 23 93% 19 30.25 0.0
01 00:35 NW 5 10.00 Partly Cloudy SCT070 26.6 24.8 93% 22 30.25 0.0
01 00:15 W 6 10.00 Mostly Cloudy BKN070 26.6 26.6 100% 21 30.25 0.0
30 23:55 W 6 10.00 Overcast OVC070 26.6 24.8 93% 21 30.25 0.0
30 23:35 W 3 10.00 Overcast OVC070 26.6 26.6 100% 30.25 0.0
30 22:55 N 5 10.00 Mostly Cloudy BKN070 28.4 26.6 93% 24 30.24 0.0
30 22:35 NW 5 10.00 Partly Cloudy SCT070 28.4 28.4 100% 24 30.23 0.0
30 22:15 W 3 10.00 Mostly Cloudy BKN070 30.2 28.4 93% 30.23 0.0
30 21:55 W 3 10.00 Overcast OVC070 30.2 28.4 93% 30.23 0.0
30 21:35 Calm 10.00 Mostly Cloudy BKN070 30.2 30.2 100% 30.22 0.0
30 21:15 NE 3 10.00 Fair CLR 32 32 100% 30.22 0.0
30 20:55 NE 5 10.00 Partly Cloudy SCT120 32 32 100% 28 30.21 0.0
30 20:35 E 7 10.00 Mostly Cloudy BKN120 32 32 100% 26 30.21 0.0
30 20:15 SW 3 5.00 Light Snow SCT007 SCT015 OVC120 32 32 100% 30.2 0.0
30 19:55 SW 14 0.50 Snow BKN012 OVC019 32 32 100% 23 30.2 0.0
30 19:35 SW 8 0.50 Snow OVC009 32 32 100% 25 30.21 0.0
30 19:15 S 6 0.75 Light Snow OVC007 32 32 100% 27 30.21 0.0
30 18:35 NE 8 2.00 Light Snow OVC011 33.8 32 93% 28 30.21 0.0
30 18:15 N 10 4.00 Rain BKN016 BKN021 OVC032 35.6 30.2 81% 29 30.19 0.0
30 17:35 S 14 G 18 10.00 Overcast SCT021 SCT050 OVC060 41 28.4 61% 34 30.16 0.0
30 17:15 S 16 G 25 10.00 Light Rain SCT041 BKN055 OVC070 41 28.4 61% 33 30.15 0.0
30 16:55 S 5 10.00 Light Rain SCT036 OVC048 42.8 26.6 53% 41 30.15 0.0
30 16:35 SE 10 G 18 10.00 Light Rain SCT038 SCT047 OVC050 44.6 23 43% 40 30.15 0.0
30 16:15 SE 12 G 16 10.00 Light Drizzle OVC050 44.6 21.2 39% 39 30.14 0.0
30 15:55 S 9 G 21 10.00 Mostly Cloudy SCT050 BKN065 BKN090 50 23 35% 47 30.15 0.0
30 15:35 SW 10 G 17 10.00 Mostly Cloudy BKN065 BKN090 46.4 21.2 37% 42 30.15 0.0
Date Time (mdt) Wind (mph) Vis. (mi.) Weather Sky Cond. Air Dwpt Max. Min. Relative Humidity Wind Chill (°F) Heat Index (°F) altimeter (in) sea level (mb) 1 hr 3 hr 6 hr
6 hour
Temperature (ºF) Pressure Precipitation (in)